Accueil
METAR-TAF:

METAR-TAF

Aéroports :

Ube, Japon

latitude: 33-57N, longitude: 131-15E, altitude: 5 m

Observation

Le bulletin a été fait il y a 32 minutes, à 07:00 UTC
Vent 12 kt de est/sud-est
Température 32°C
Humidité 71%
Pression 1007 hPa
Visibilité 10 km ou plus
Quelques nuages à une hauteur de 1000 ft
Nuages épars à une hauteur de 16000 ft
Nuages fragmentés

METAR: RJDC 250700Z 11012KT 9999 FEW010 SCT160 BKN/// 32/26 Q1007

Heure: 16:32 (07:32 UTC)


TAF: absent

Observations et prévisions météorologiques de plus de 4000 aéroports (messages METAR et TAF).

Les stations disponibles sont représentées par des disques jaunes et rouges sur la carte.

Passer la souris dessus pour voir le nom de la station.

Cliquer dessus pour voir les observations et prévisions météorologiques.

Pour changer de carte: cliquez sur les boutons verts avec une croix noire pour zoomer, sur le bouton vert avec un tiret pour effectuer un zoom arrière, ou sur les flèches vertes pour les cartes adjacentes.


METAR-TAF: